sensor_id;sensor_type;location;lat;lon;timestamp;P1;durP1;ratioP1;P2;durP2;ratioP2
70840;SDS011;58465;51.534;9.934;2022-07-15T00:00:37;2.47;;;1.40;;
70840;SDS011;58465;51.534;9.934;2022-07-15T00:03:03;2.72;;;1.20;;
70840;SDS011;58465;51.534;9.934;2022-07-15T00:05:29;3.15;;;1.10;;
70840;SDS011;58465;51.534;9.934;2022-07-15T00:07:54;4.25;;;1.05;;
70840;SDS011;58465;51.534;9.934;2022-07-15T00:10:20;2.80;;;1.10;;
70840;SDS011;58465;51.534;9.934;2022-07-15T00:12:52;2.53;;;1.13;;
70840;SDS011;58465;51.534;9.934;2022-07-15T00:15:25;2.75;;;0.95;;
70840;SDS011;58465;51.534;9.934;2022-07-15T00:17:53;5.57;;;0.80;;
70840;SDS011;58465;51.534;9.934;2022-07-15T00:20:19;2.90;;;1.00;;
70840;SDS011;58465;51.534;9.934;2022-07-15T00:22:45;5.43;;;0.90;;
70840;SDS011;58465;51.534;9.934;2022-07-15T00:25:11;7.35;;;1.30;;
70840;SDS011;58465;51.534;9.934;2022-07-15T00:27:54;2.75;;;1.00;;
70840;SDS011;58465;51.534;9.934;2022-07-15T00:30:21;4.30;;;1.13;;
70840;SDS011;58465;51.534;9.934;2022-07-15T00:32:47;4.97;;;1.20;;
70840;SDS011;58465;51.534;9.934;2022-07-15T00:35:13;27.73;;;14.00;;
70840;SDS011;58465;51.534;9.934;2022-07-15T00:37:38;25.40;;;15.68;;
70840;SDS011;58465;51.534;9.934;2022-07-15T00:40:04;45.72;;;28.17;;
70840;SDS011;58465;51.534;9.934;2022-07-15T00:42:30;25.92;;;16.20;;
70840;SDS011;58465;51.534;9.934;2022-07-15T00:45:11;15.63;;;9.63;;
70840;SDS011;58465;51.534;9.934;2022-07-15T00:47:40;8.25;;;3.22;;
70840;SDS011;58465;51.534;9.934;2022-07-15T00:50:07;4.63;;;1.95;;
70840;SDS011;58465;51.534;9.934;2022-07-15T00:52:32;7.22;;;1.35;;
70840;SDS011;58465;51.534;9.934;2022-07-15T00:55:03;3.47;;;1.33;;
70840;SDS011;58465;51.534;9.934;2022-07-15T00:57:31;4.38;;;1.30;;
70840;SDS011;58465;51.534;9.934;2022-07-15T01:00:01;3.72;;;1.20;;
70840;SDS011;58465;51.534;9.934;2022-07-15T01:02:28;3.72;;;1.00;;
70840;SDS011;58465;51.534;9.934;2022-07-15T01:04:55;1.92;;;0.95;;
70840;SDS011;58465;51.534;9.934;2022-07-15T01:07:23;1.50;;;0.90;;
70840;SDS011;58465;51.534;9.934;2022-07-15T01:09:48;2.40;;;0.90;;
70840;SDS011;58465;51.534;9.934;2022-07-15T01:12:13;3.92;;;1.00;;
70840;SDS011;58465;51.534;9.934;2022-07-15T01:14:39;2.17;;;0.90;;
70840;SDS011;58465;51.534;9.934;2022-07-15T01:17:10;3.42;;;1.10;;
70840;SDS011;58465;51.534;9.934;2022-07-15T01:19:36;1.05;;;0.93;;
70840;SDS011;58465;51.534;9.934;2022-07-15T01:22:03;3.35;;;0.85;;
70840;SDS011;58465;51.534;9.934;2022-07-15T01:24:29;3.40;;;1.20;;
70840;SDS011;58465;51.534;9.934;2022-07-15T01:26:54;5.00;;;0.90;;
70840;SDS011;58465;51.534;9.934;2022-07-15T01:29:19;3.53;;;1.13;;
70840;SDS011;58465;51.534;9.934;2022-07-15T01:31:45;2.17;;;0.70;;
70840;SDS011;58465;51.534;9.934;2022-07-15T01:34:10;2.20;;;0.85;;
70840;SDS011;58465;51.534;9.934;2022-07-15T01:36:36;3.10;;;1.08;;
70840;SDS011;58465;51.534;9.934;2022-07-15T01:39:02;4.63;;;1.30;;
70840;SDS011;58465;51.534;9.934;2022-07-15T01:41:27;9.80;;;1.15;;
70840;SDS011;58465;51.534;9.934;2022-07-15T01:43:53;2.88;;;1.00;;
70840;SDS011;58465;51.534;9.934;2022-07-15T01:46:18;2.20;;;1.00;;
70840;SDS011;58465;51.534;9.934;2022-07-15T01:48:43;2.88;;;0.85;;
70840;SDS011;58465;51.534;9.934;2022-07-15T01:51:27;4.90;;;1.00;;
70840;SDS011;58465;51.534;9.934;2022-07-15T01:53:54;2.47;;;0.90;;
70840;SDS011;58465;51.534;9.934;2022-07-15T01:56:19;1.98;;;0.90;;
70840;SDS011;58465;51.534;9.934;2022-07-15T01:58:45;2.15;;;1.02;;
70840;SDS011;58465;51.534;9.934;2022-07-15T02:01:10;2.53;;;0.82;;
70840;SDS011;58465;51.534;9.934;2022-07-15T02:03:35;3.92;;;0.80;;
70840;SDS011;58465;51.534;9.934;2022-07-15T02:06:01;2.88;;;1.00;;
70840;SDS011;58465;51.534;9.934;2022-07-15T02:08:26;1.92;;;0.90;;
70840;SDS011;58465;51.534;9.934;2022-07-15T02:10:51;3.20;;;1.05;;
70840;SDS011;58465;51.534;9.934;2022-07-15T02:13:17;1.83;;;1.10;;
70840;SDS011;58465;51.534;9.934;2022-07-15T02:15:42;4.88;;;1.00;;
70840;SDS011;58465;51.534;9.934;2022-07-15T02:18:08;1.65;;;1.02;;
70840;SDS011;58465;51.534;9.934;2022-07-15T02:20:33;1.98;;;1.08;;
70840;SDS011;58465;51.534;9.934;2022-07-15T02:23:00;3.20;;;1.10;;
70840;SDS011;58465;51.534;9.934;2022-07-15T02:25:26;1.98;;;0.88;;
70840;SDS011;58465;51.534;9.934;2022-07-15T02:27:53;2.15;;;0.88;;
70840;SDS011;58465;51.534;9.934;2022-07-15T02:30:21;3.83;;;1.10;;
70840;SDS011;58465;51.534;9.934;2022-07-15T02:32:50;3.30;;;1.30;;
70840;SDS011;58465;51.534;9.934;2022-07-15T02:35:15;8.07;;;1.08;;
70840;SDS011;58465;51.534;9.934;2022-07-15T02:37:41;2.50;;;1.00;;
70840;SDS011;58465;51.534;9.934;2022-07-15T02:40:07;5.28;;;1.00;;
70840;SDS011;58465;51.534;9.934;2022-07-15T02:42:33;3.55;;;1.05;;
70840;SDS011;58465;51.534;9.934;2022-07-15T02:44:58;4.82;;;0.88;;
70840;SDS011;58465;51.534;9.934;2022-07-15T02:47:24;1.77;;;0.77;;
70840;SDS011;58465;51.534;9.934;2022-07-15T02:49:49;4.45;;;1.10;;
70840;SDS011;58465;51.534;9.934;2022-07-15T02:52:14;1.85;;;0.80;;
70840;SDS011;58465;51.534;9.934;2022-07-15T02:54:40;5.07;;;1.00;;
70840;SDS011;58465;51.534;9.934;2022-07-15T02:57:05;3.28;;;0.85;;
70840;SDS011;58465;51.534;9.934;2022-07-15T02:59:30;1.40;;;0.90;;
70840;SDS011;58465;51.534;9.934;2022-07-15T03:01:55;2.78;;;1.00;;
70840;SDS011;58465;51.534;9.934;2022-07-15T03:04:21;3.30;;;0.98;;
70840;SDS011;58465;51.534;9.934;2022-07-15T03:06:46;1.65;;;0.93;;
70840;SDS011;58465;51.534;9.934;2022-07-15T03:09:11;3.70;;;1.20;;
70840;SDS011;58465;51.534;9.934;2022-07-15T03:11:37;1.67;;;1.08;;
70840;SDS011;58465;51.534;9.934;2022-07-15T03:14:02;2.65;;;0.82;;
70840;SDS011;58465;51.534;9.934;2022-07-15T03:16:27;3.55;;;1.10;;
70840;SDS011;58465;51.534;9.934;2022-07-15T03:18:53;1.83;;;0.90;;
70840;SDS011;58465;51.534;9.934;2022-07-15T03:21:18;4.95;;;0.90;;
70840;SDS011;58465;51.534;9.934;2022-07-15T03:23:43;3.00;;;1.00;;
70840;SDS011;58465;51.534;9.934;2022-07-15T03:26:08;3.00;;;1.33;;
70840;SDS011;58465;51.534;9.934;2022-07-15T03:28:34;2.80;;;1.10;;
70840;SDS011;58465;51.534;9.934;2022-07-15T03:30:59;8.48;;;1.40;;
70840;SDS011;58465;51.534;9.934;2022-07-15T03:33:25;5.60;;;1.13;;
70840;SDS011;58465;51.534;9.934;2022-07-15T03:35:50;3.63;;;0.98;;
70840;SDS011;58465;51.534;9.934;2022-07-15T03:38:15;2.45;;;1.10;;
70840;SDS011;58465;51.534;9.934;2022-07-15T03:40:41;4.05;;;1.00;;
70840;SDS011;58465;51.534;9.934;2022-07-15T03:43:06;2.80;;;1.08;;
70840;SDS011;58465;51.534;9.934;2022-07-15T03:45:32;7.25;;;1.42;;
70840;SDS011;58465;51.534;9.934;2022-07-15T03:47:57;2.53;;;1.10;;
70840;SDS011;58465;51.534;9.934;2022-07-15T03:50:22;7.35;;;1.27;;
70840;SDS011;58465;51.534;9.934;2022-07-15T03:52:47;2.67;;;1.30;;
70840;SDS011;58465;51.534;9.934;2022-07-15T03:55:13;16.23;;;3.58;;
70840;SDS011;58465;51.534;9.934;2022-07-15T03:57:38;9.43;;;2.58;;
70840;SDS011;58465;51.534;9.934;2022-07-15T04:00:04;16.80;;;6.00;;
70840;SDS011;58465;51.534;9.934;2022-07-15T04:02:30;8.90;;;4.75;;
70840;SDS011;58465;51.534;9.934;2022-07-15T04:04:55;6.53;;;2.67;;
70840;SDS011;58465;51.534;9.934;2022-07-15T04:07:20;3.58;;;1.80;;
70840;SDS011;58465;51.534;9.934;2022-07-15T04:09:46;3.63;;;1.55;;
70840;SDS011;58465;51.534;9.934;2022-07-15T04:12:11;3.33;;;1.38;;
70840;SDS011;58465;51.534;9.934;2022-07-15T04:14:36;4.38;;;1.30;;
70840;SDS011;58465;51.534;9.934;2022-07-15T04:17:02;8.27;;;1.23;;
70840;SDS011;58465;51.534;9.934;2022-07-15T04:19:28;6.95;;;1.73;;
70840;SDS011;58465;51.534;9.934;2022-07-15T04:21:53;6.10;;;1.38;;
70840;SDS011;58465;51.534;9.934;2022-07-15T04:24:18;3.65;;;1.10;;
70840;SDS011;58465;51.534;9.934;2022-07-15T04:26:44;4.22;;;1.20;;
70840;SDS011;58465;51.534;9.934;2022-07-15T04:29:09;1.80;;;0.98;;
70840;SDS011;58465;51.534;9.934;2022-07-15T04:31:35;2.15;;;1.00;;
70840;SDS011;58465;51.534;9.934;2022-07-15T04:34:00;12.25;;;1.40;;
70840;SDS011;58465;51.534;9.934;2022-07-15T04:36:25;4.10;;;1.45;;
70840;SDS011;58465;51.534;9.934;2022-07-15T04:38:50;4.53;;;1.33;;
70840;SDS011;58465;51.534;9.934;2022-07-15T04:41:16;13.77;;;3.33;;
70840;SDS011;58465;51.534;9.934;2022-07-15T04:43:41;8.25;;;1.50;;
70840;SDS011;58465;51.534;9.934;2022-07-15T04:46:06;6.13;;;1.30;;
70840;SDS011;58465;51.534;9.934;2022-07-15T04:48:32;5.55;;;2.00;;
70840;SDS011;58465;51.534;9.934;2022-07-15T04:51:16;3.70;;;1.38;;
70840;SDS011;58465;51.534;9.934;2022-07-15T04:53:42;5.55;;;1.75;;
70840;SDS011;58465;51.534;9.934;2022-07-15T04:56:07;6.70;;;1.92;;
70840;SDS011;58465;51.534;9.934;2022-07-15T04:58:32;10.95;;;2.15;;
70840;SDS011;58465;51.534;9.934;2022-07-15T05:00:57;4.68;;;1.35;;
70840;SDS011;58465;51.534;9.934;2022-07-15T05:03:23;3.72;;;1.30;;
70840;SDS011;58465;51.534;9.934;2022-07-15T05:05:48;5.05;;;1.40;;
70840;SDS011;58465;51.534;9.934;2022-07-15T05:08:14;1.95;;;1.05;;
70840;SDS011;58465;51.534;9.934;2022-07-15T05:10:39;2.42;;;1.20;;
70840;SDS011;58465;51.534;9.934;2022-07-15T05:13:04;5.95;;;1.40;;
70840;SDS011;58465;51.534;9.934;2022-07-15T05:15:30;3.42;;;1.15;;
70840;SDS011;58465;51.534;9.934;2022-07-15T05:17:56;4.45;;;1.27;;
70840;SDS011;58465;51.534;9.934;2022-07-15T05:20:21;5.28;;;1.40;;
70840;SDS011;58465;51.534;9.934;2022-07-15T05:22:47;3.58;;;1.20;;
70840;SDS011;58465;51.534;9.934;2022-07-15T05:25:12;10.20;;;2.28;;
70840;SDS011;58465;51.534;9.934;2022-07-15T05:27:37;5.45;;;1.42;;
70840;SDS011;58465;51.534;9.934;2022-07-15T05:30:03;5.03;;;1.60;;
70840;SDS011;58465;51.534;9.934;2022-07-15T05:32:28;4.70;;;1.42;;
70840;SDS011;58465;51.534;9.934;2022-07-15T05:34:54;3.60;;;1.20;;
70840;SDS011;58465;51.534;9.934;2022-07-15T05:37:20;8.80;;;1.45;;
70840;SDS011;58465;51.534;9.934;2022-07-15T05:39:45;4.40;;;1.60;;
70840;SDS011;58465;51.534;9.934;2022-07-15T05:42:20;3.90;;;1.60;;
70840;SDS011;58465;51.534;9.934;2022-07-15T05:44:46;5.65;;;1.50;;
70840;SDS011;58465;51.534;9.934;2022-07-15T05:47:12;4.57;;;1.30;;
70840;SDS011;58465;51.534;9.934;2022-07-15T05:49:37;7.18;;;1.13;;
70840;SDS011;58465;51.534;9.934;2022-07-15T05:52:02;3.00;;;1.30;;
70840;SDS011;58465;51.534;9.934;2022-07-15T05:54:29;6.80;;;1.67;;
70840;SDS011;58465;51.534;9.934;2022-07-15T05:56:54;5.10;;;1.52;;
70840;SDS011;58465;51.534;9.934;2022-07-15T05:59:19;5.55;;;1.95;;
70840;SDS011;58465;51.534;9.934;2022-07-15T06:01:44;5.05;;;1.50;;
70840;SDS011;58465;51.534;9.934;2022-07-15T06:04:11;16.23;;;2.55;;
70840;SDS011;58465;51.534;9.934;2022-07-15T06:06:36;6.72;;;1.20;;
70840;SDS011;58465;51.534;9.934;2022-07-15T06:09:01;4.13;;;1.17;;
70840;SDS011;58465;51.534;9.934;2022-07-15T06:11:27;7.53;;;1.35;;
70840;SDS011;58465;51.534;9.934;2022-07-15T06:13:52;6.63;;;1.10;;
70840;SDS011;58465;51.534;9.934;2022-07-15T06:16:18;8.77;;;1.40;;
70840;SDS011;58465;51.534;9.934;2022-07-15T06:18:43;11.00;;;1.63;;
70840;SDS011;58465;51.534;9.934;2022-07-15T06:21:08;4.47;;;1.00;;
70840;SDS011;58465;51.534;9.934;2022-07-15T06:23:34;3.95;;;1.15;;
70840;SDS011;58465;51.534;9.934;2022-07-15T06:25:59;5.05;;;1.30;;
70840;SDS011;58465;51.534;9.934;2022-07-15T06:28:25;6.85;;;1.38;;
70840;SDS011;58465;51.534;9.934;2022-07-15T06:30:50;10.82;;;1.67;;
70840;SDS011;58465;51.534;9.934;2022-07-15T06:33:15;5.32;;;1.20;;
70840;SDS011;58465;51.534;9.934;2022-07-15T06:35:41;4.05;;;1.00;;
70840;SDS011;58465;51.534;9.934;2022-07-15T06:38:06;3.40;;;1.17;;
70840;SDS011;58465;51.534;9.934;2022-07-15T06:40:31;7.70;;;1.73;;
70840;SDS011;58465;51.534;9.934;2022-07-15T06:42:57;5.95;;;1.45;;
70840;SDS011;58465;51.534;9.934;2022-07-15T06:45:22;6.38;;;1.40;;
70840;SDS011;58465;51.534;9.934;2022-07-15T06:47:48;8.07;;;1.70;;
70840;SDS011;58465;51.534;9.934;2022-07-15T06:50:13;6.07;;;1.50;;
70840;SDS011;58465;51.534;9.934;2022-07-15T06:52:39;3.58;;;1.35;;
70840;SDS011;58465;51.534;9.934;2022-07-15T06:55:04;2.75;;;1.20;;
70840;SDS011;58465;51.534;9.934;2022-07-15T06:57:30;8.43;;;1.77;;
70840;SDS011;58465;51.534;9.934;2022-07-15T06:59:55;6.22;;;1.40;;
70840;SDS011;58465;51.534;9.934;2022-07-15T07:02:21;6.25;;;1.15;;
70840;SDS011;58465;51.534;9.934;2022-07-15T07:04:49;5.03;;;2.03;;
70840;SDS011;58465;51.534;9.934;2022-07-15T07:07:14;2.63;;;1.13;;
70840;SDS011;58465;51.534;9.934;2022-07-15T07:09:40;5.57;;;1.75;;
70840;SDS011;58465;51.534;9.934;2022-07-15T07:12:07;6.75;;;1.30;;
70840;SDS011;58465;51.534;9.934;2022-07-15T07:14:32;6.00;;;2.22;;
70840;SDS011;58465;51.534;9.934;2022-07-15T07:16:58;6.88;;;1.73;;
70840;SDS011;58465;51.534;9.934;2022-07-15T07:19:23;9.07;;;1.73;;
70840;SDS011;58465;51.534;9.934;2022-07-15T07:21:48;3.38;;;1.20;;
70840;SDS011;58465;51.534;9.934;2022-07-15T07:24:13;4.40;;;1.13;;
70840;SDS011;58465;51.534;9.934;2022-07-15T07:26:39;6.05;;;1.65;;
70840;SDS011;58465;51.534;9.934;2022-07-15T07:29:05;7.53;;;1.20;;
70840;SDS011;58465;51.534;9.934;2022-07-15T07:31:30;5.05;;;1.33;;
70840;SDS011;58465;51.534;9.934;2022-07-15T07:33:56;4.90;;;1.27;;
70840;SDS011;58465;51.534;9.934;2022-07-15T07:36:22;5.63;;;1.30;;
70840;SDS011;58465;51.534;9.934;2022-07-15T07:38:48;4.97;;;1.08;;
70840;SDS011;58465;51.534;9.934;2022-07-15T07:41:13;8.25;;;1.65;;
70840;SDS011;58465;51.534;9.934;2022-07-15T07:43:39;6.10;;;1.27;;
70840;SDS011;58465;51.534;9.934;2022-07-15T07:46:05;4.40;;;1.00;;
70840;SDS011;58465;51.534;9.934;2022-07-15T07:48:30;6.22;;;1.10;;
70840;SDS011;58465;51.534;9.934;2022-07-15T07:50:56;6.05;;;1.30;;
70840;SDS011;58465;51.534;9.934;2022-07-15T07:53:22;4.50;;;1.10;;
70840;SDS011;58465;51.534;9.934;2022-07-15T07:55:48;4.35;;;1.33;;
70840;SDS011;58465;51.534;9.934;2022-07-15T07:58:13;5.68;;;1.10;;
70840;SDS011;58465;51.534;9.934;2022-07-15T08:00:41;6.20;;;1.30;;
70840;SDS011;58465;51.534;9.934;2022-07-15T08:03:08;5.60;;;1.00;;
70840;SDS011;58465;51.534;9.934;2022-07-15T08:05:33;7.57;;;1.67;;
70840;SDS011;58465;51.534;9.934;2022-07-15T08:08:11;5.07;;;1.20;;
70840;SDS011;58465;51.534;9.934;2022-07-15T08:10:42;6.85;;;1.48;;
70840;SDS011;58465;51.534;9.934;2022-07-15T08:13:11;5.75;;;1.10;;
70840;SDS011;58465;51.534;9.934;2022-07-15T08:15:38;5.53;;;0.88;;
70840;SDS011;58465;51.534;9.934;2022-07-15T08:18:03;7.40;;;3.05;;
70840;SDS011;58465;51.534;9.934;2022-07-15T08:20:29;5.45;;;1.10;;
70840;SDS011;58465;51.534;9.934;2022-07-15T08:22:55;3.28;;;1.08;;
70840;SDS011;58465;51.534;9.934;2022-07-15T08:25:30;5.88;;;1.02;;
70840;SDS011;58465;51.534;9.934;2022-07-15T08:27:57;3.53;;;1.05;;
70840;SDS011;58465;51.534;9.934;2022-07-15T08:30:26;3.05;;;1.08;;
70840;SDS011;58465;51.534;9.934;2022-07-15T08:32:53;7.65;;;1.15;;
70840;SDS011;58465;51.534;9.934;2022-07-15T08:35:19;6.75;;;1.27;;
70840;SDS011;58465;51.534;9.934;2022-07-15T08:37:45;9.88;;;2.05;;
70840;SDS011;58465;51.534;9.934;2022-07-15T08:40:11;9.52;;;1.80;;
70840;SDS011;58465;51.534;9.934;2022-07-15T08:42:37;5.22;;;0.80;;
70840;SDS011;58465;51.534;9.934;2022-07-15T08:45:05;5.28;;;1.05;;
70840;SDS011;58465;51.534;9.934;2022-07-15T08:47:31;7.07;;;1.90;;
70840;SDS011;58465;51.534;9.934;2022-07-15T08:49:57;9.43;;;2.35;;
70840;SDS011;58465;51.534;9.934;2022-07-15T08:52:24;2.60;;;1.42;;
70840;SDS011;58465;51.534;9.934;2022-07-15T08:54:50;5.68;;;1.10;;
70840;SDS011;58465;51.534;9.934;2022-07-15T08:57:16;11.70;;;2.45;;
70840;SDS011;58465;51.534;9.934;2022-07-15T08:59:42;2.75;;;0.82;;
70840;SDS011;58465;51.534;9.934;2022-07-15T09:02:10;6.65;;;1.58;;
70840;SDS011;58465;51.534;9.934;2022-07-15T09:05:15;4.90;;;2.08;;
70840;SDS011;58465;51.534;9.934;2022-07-15T09:07:54;3.55;;;1.20;;
70840;SDS011;58465;51.534;9.934;2022-07-15T09:10:20;6.80;;;1.80;;
70840;SDS011;58465;51.534;9.934;2022-07-15T09:12:51;5.32;;;1.20;;
70840;SDS011;58465;51.534;9.934;2022-07-15T09:15:37;4.43;;;2.00;;
70840;SDS011;58465;51.534;9.934;2022-07-15T09:20:31;7.95;;;1.23;;
70840;SDS011;58465;51.534;9.934;2022-07-15T09:22:57;6.10;;;1.23;;
70840;SDS011;58465;51.534;9.934;2022-07-15T09:25:22;2.65;;;0.90;;
70840;SDS011;58465;51.534;9.934;2022-07-15T09:27:48;2.70;;;0.80;;
70840;SDS011;58465;51.534;9.934;2022-07-15T09:30:15;4.70;;;1.00;;
70840;SDS011;58465;51.534;9.934;2022-07-15T09:33:01;4.38;;;1.05;;
70840;SDS011;58465;51.534;9.934;2022-07-15T09:35:47;4.07;;;0.88;;
70840;SDS011;58465;51.534;9.934;2022-07-15T09:41:52;3.97;;;0.85;;
70840;SDS011;58465;51.534;9.934;2022-07-15T09:44:07;3.13;;;0.70;;
70840;SDS011;58465;51.534;9.934;2022-07-15T09:46:46;8.05;;;3.70;;
70840;SDS011;58465;51.534;9.934;2022-07-15T09:49:16;4.63;;;1.10;;
70840;SDS011;58465;51.534;9.934;2022-07-15T09:54:15;3.40;;;1.13;;
70840;SDS011;58465;51.534;9.934;2022-07-15T09:56:41;9.48;;;1.27;;
70840;SDS011;58465;51.534;9.934;2022-07-15T09:59:07;10.80;;;1.70;;
70840;SDS011;58465;51.534;9.934;2022-07-15T10:01:34;11.10;;;2.60;;
70840;SDS011;58465;51.534;9.934;2022-07-15T10:04:00;8.40;;;1.55;;
70840;SDS011;58465;51.534;9.934;2022-07-15T10:06:26;8.13;;;1.20;;
70840;SDS011;58465;51.534;9.934;2022-07-15T10:08:53;5.63;;;1.02;;
70840;SDS011;58465;51.534;9.934;2022-07-15T10:11:18;3.42;;;0.85;;
70840;SDS011;58465;51.534;9.934;2022-07-15T10:17:12;7.68;;;1.20;;
70840;SDS011;58465;51.534;9.934;2022-07-15T10:20:08;14.25;;;1.50;;
70840;SDS011;58465;51.534;9.934;2022-07-15T10:22:56;5.70;;;1.83;;
70840;SDS011;58465;51.534;9.934;2022-07-15T10:29:02;3.00;;;0.90;;
70840;SDS011;58465;51.534;9.934;2022-07-15T10:31:22;5.10;;;2.00;;
70840;SDS011;58465;51.534;9.934;2022-07-15T10:39:11;3.60;;;1.20;;
70840;SDS011;58465;51.534;9.934;2022-07-15T10:41:56;4.85;;;0.75;;
70840;SDS011;58465;51.534;9.934;2022-07-15T10:44:21;3.80;;;0.80;;
70840;SDS011;58465;51.534;9.934;2022-07-15T10:47:17;4.15;;;0.80;;
70840;SDS011;58465;51.534;9.934;2022-07-15T10:49:40;2.17;;;0.80;;
70840;SDS011;58465;51.534;9.934;2022-07-15T10:52:13;5.90;;;0.75;;
70840;SDS011;58465;51.534;9.934;2022-07-15T10:54:44;2.53;;;0.85;;
70840;SDS011;58465;51.534;9.934;2022-07-15T10:57:16;2.53;;;0.90;;
70840;SDS011;58465;51.534;9.934;2022-07-15T10:59:51;4.93;;;1.10;;
70840;SDS011;58465;51.534;9.934;2022-07-15T11:02:19;5.82;;;1.85;;
70840;SDS011;58465;51.534;9.934;2022-07-15T11:04:46;5.85;;;0.93;;
70840;SDS011;58465;51.534;9.934;2022-07-15T11:10:23;7.85;;;2.00;;
70840;SDS011;58465;51.534;9.934;2022-07-15T11:17:22;4.45;;;1.20;;
70840;SDS011;58465;51.534;9.934;2022-07-15T11:20:09;4.55;;;1.67;;
70840;SDS011;58465;51.534;9.934;2022-07-15T11:22:48;3.60;;;0.80;;
70840;SDS011;58465;51.534;9.934;2022-07-15T11:30:44;8.48;;;1.23;;
70840;SDS011;58465;51.534;9.934;2022-07-15T11:33:20;3.55;;;1.10;;
70840;SDS011;58465;51.534;9.934;2022-07-15T11:36:02;3.25;;;0.90;;
70840;SDS011;58465;51.534;9.934;2022-07-15T11:38:36;5.00;;;0.90;;
70840;SDS011;58465;51.534;9.934;2022-07-15T11:41:03;4.72;;;1.08;;
70840;SDS011;58465;51.534;9.934;2022-07-15T11:43:58;2.22;;;0.80;;
70840;SDS011;58465;51.534;9.934;2022-07-15T11:46:44;9.35;;;1.60;;
70840;SDS011;58465;51.534;9.934;2022-07-15T11:49:10;4.13;;;1.15;;
70840;SDS011;58465;51.534;9.934;2022-07-15T11:51:36;2.50;;;0.82;;
70840;SDS011;58465;51.534;9.934;2022-07-15T11:54:01;3.97;;;0.85;;
70840;SDS011;58465;51.534;9.934;2022-07-15T11:56:27;10.20;;;1.25;;
70840;SDS011;58465;51.534;9.934;2022-07-15T11:58:54;5.05;;;2.42;;
70840;SDS011;58465;51.534;9.934;2022-07-15T12:01:22;2.97;;;1.30;;
70840;SDS011;58465;51.534;9.934;2022-07-15T12:03:55;6.25;;;0.95;;
70840;SDS011;58465;51.534;9.934;2022-07-15T12:06:32;3.80;;;1.20;;
70840;SDS011;58465;51.534;9.934;2022-07-15T12:08:58;8.68;;;1.20;;
70840;SDS011;58465;51.534;9.934;2022-07-15T12:11:31;9.05;;;1.23;;
70840;SDS011;58465;51.534;9.934;2022-07-15T12:14:02;3.10;;;1.23;;
70840;SDS011;58465;51.534;9.934;2022-07-15T12:16:31;5.65;;;1.60;;
70840;SDS011;58465;51.534;9.934;2022-07-15T12:19:00;9.35;;;1.63;;
70840;SDS011;58465;51.534;9.934;2022-07-15T12:21:28;6.68;;;1.17;;
70840;SDS011;58465;51.534;9.934;2022-07-15T12:24:01;11.40;;;3.90;;
70840;SDS011;58465;51.534;9.934;2022-07-15T12:26:30;5.25;;;1.13;;
70840;SDS011;58465;51.534;9.934;2022-07-15T12:28:57;4.38;;;1.00;;
70840;SDS011;58465;51.534;9.934;2022-07-15T12:31:25;3.97;;;1.30;;
70840;SDS011;58465;51.534;9.934;2022-07-15T12:33:52;5.07;;;1.55;;
70840;SDS011;58465;51.534;9.934;2022-07-15T12:36:18;7.85;;;4.55;;
70840;SDS011;58465;51.534;9.934;2022-07-15T12:38:45;6.53;;;1.73;;
70840;SDS011;58465;51.534;9.934;2022-07-15T12:43:53;5.00;;;1.48;;
70840;SDS011;58465;51.534;9.934;2022-07-15T12:46:49;3.85;;;1.42;;
70840;SDS011;58465;51.534;9.934;2022-07-15T12:54:50;2.92;;;1.10;;
70840;SDS011;58465;51.534;9.934;2022-07-15T12:59:52;5.18;;;1.17;;
70840;SDS011;58465;51.534;9.934;2022-07-15T13:02:19;4.97;;;1.45;;
70840;SDS011;58465;51.534;9.934;2022-07-15T13:04:44;5.15;;;1.10;;
70840;SDS011;58465;51.534;9.934;2022-07-15T13:07:09;5.18;;;1.80;;
70840;SDS011;58465;51.534;9.934;2022-07-15T13:09:35;3.45;;;1.17;;
70840;SDS011;58465;51.534;9.934;2022-07-15T13:12:00;3.25;;;1.10;;
70840;SDS011;58465;51.534;9.934;2022-07-15T13:14:27;6.50;;;2.30;;
70840;SDS011;58465;51.534;9.934;2022-07-15T13:16:52;5.50;;;1.60;;
70840;SDS011;58465;51.534;9.934;2022-07-15T13:19:17;7.70;;;3.08;;
70840;SDS011;58465;51.534;9.934;2022-07-15T13:21:43;4.38;;;1.45;;
70840;SDS011;58465;51.534;9.934;2022-07-15T13:24:08;5.80;;;1.30;;
70840;SDS011;58465;51.534;9.934;2022-07-15T13:26:34;7.50;;;3.58;;
70840;SDS011;58465;51.534;9.934;2022-07-15T13:28:59;3.17;;;1.63;;
70840;SDS011;58465;51.534;9.934;2022-07-15T13:31:24;6.78;;;2.88;;
70840;SDS011;58465;51.534;9.934;2022-07-15T13:33:49;3.22;;;1.30;;
70840;SDS011;58465;51.534;9.934;2022-07-15T13:36:15;2.63;;;1.20;;
70840;SDS011;58465;51.534;9.934;2022-07-15T13:38:40;5.55;;;1.20;;
70840;SDS011;58465;51.534;9.934;2022-07-15T13:41:06;5.38;;;1.70;;
70840;SDS011;58465;51.534;9.934;2022-07-15T13:43:31;6.65;;;2.38;;
70840;SDS011;58465;51.534;9.934;2022-07-15T13:45:56;4.65;;;1.73;;
70840;SDS011;58465;51.534;9.934;2022-07-15T13:48:22;4.78;;;1.27;;
70840;SDS011;58465;51.534;9.934;2022-07-15T13:50:47;8.27;;;2.40;;
70840;SDS011;58465;51.534;9.934;2022-07-15T13:53:31;3.65;;;1.02;;
70840;SDS011;58465;51.534;9.934;2022-07-15T13:55:56;3.85;;;1.50;;
70840;SDS011;58465;51.534;9.934;2022-07-15T13:58:21;4.88;;;1.30;;
70840;SDS011;58465;51.534;9.934;2022-07-15T14:00:47;4.03;;;1.40;;
70840;SDS011;58465;51.534;9.934;2022-07-15T14:03:12;3.67;;;1.13;;
70840;SDS011;58465;51.534;9.934;2022-07-15T14:05:37;5.25;;;1.13;;
70840;SDS011;58465;51.534;9.934;2022-07-15T14:08:03;3.63;;;1.40;;
70840;SDS011;58465;51.534;9.934;2022-07-15T14:10:28;2.50;;;1.00;;
70840;SDS011;58465;51.534;9.934;2022-07-15T14:12:54;6.85;;;2.25;;
70840;SDS011;58465;51.534;9.934;2022-07-15T14:15:19;2.63;;;1.38;;
70840;SDS011;58465;51.534;9.934;2022-07-15T14:17:45;11.32;;;4.57;;
70840;SDS011;58465;51.534;9.934;2022-07-15T14:20:10;3.13;;;1.55;;
70840;SDS011;58465;51.534;9.934;2022-07-15T14:22:35;2.65;;;1.00;;
70840;SDS011;58465;51.534;9.934;2022-07-15T14:25:01;5.05;;;2.40;;
70840;SDS011;58465;51.534;9.934;2022-07-15T14:27:28;3.10;;;1.38;;
70840;SDS011;58465;51.534;9.934;2022-07-15T14:29:53;5.25;;;1.38;;
70840;SDS011;58465;51.534;9.934;2022-07-15T14:32:19;3.63;;;1.52;;
70840;SDS011;58465;51.534;9.934;2022-07-15T14:34:44;3.97;;;1.67;;
70840;SDS011;58465;51.534;9.934;2022-07-15T14:37:09;2.08;;;1.13;;
70840;SDS011;58465;51.534;9.934;2022-07-15T14:39:35;6.45;;;1.13;;
70840;SDS011;58465;51.534;9.934;2022-07-15T14:42:00;2.80;;;1.10;;
70840;SDS011;58465;51.534;9.934;2022-07-15T14:44:25;3.65;;;1.02;;
70840;SDS011;58465;51.534;9.934;2022-07-15T14:46:51;7.03;;;1.30;;
70840;SDS011;58465;51.534;9.934;2022-07-15T14:49:16;4.23;;;1.30;;
70840;SDS011;58465;51.534;9.934;2022-07-15T14:51:41;4.03;;;1.00;;
70840;SDS011;58465;51.534;9.934;2022-07-15T14:54:07;2.83;;;1.02;;
70840;SDS011;58465;51.534;9.934;2022-07-15T14:56:32;7.28;;;1.60;;
70840;SDS011;58465;51.534;9.934;2022-07-15T14:58:57;7.47;;;3.05;;
70840;SDS011;58465;51.534;9.934;2022-07-15T15:01:23;8.38;;;2.50;;
70840;SDS011;58465;51.534;9.934;2022-07-15T15:03:54;3.83;;;1.05;;
70840;SDS011;58465;51.534;9.934;2022-07-15T15:06:19;5.05;;;1.10;;
70840;SDS011;58465;51.534;9.934;2022-07-15T15:08:45;12.05;;;6.43;;
70840;SDS011;58465;51.534;9.934;2022-07-15T15:11:10;3.08;;;1.50;;
70840;SDS011;58465;51.534;9.934;2022-07-15T15:13:35;6.88;;;1.33;;
70840;SDS011;58465;51.534;9.934;2022-07-15T15:16:01;2.80;;;1.00;;
70840;SDS011;58465;51.534;9.934;2022-07-15T15:18:26;2.53;;;1.20;;
70840;SDS011;58465;51.534;9.934;2022-07-15T15:20:52;6.32;;;0.95;;
70840;SDS011;58465;51.534;9.934;2022-07-15T15:23:17;4.45;;;1.10;;
70840;SDS011;58465;51.534;9.934;2022-07-15T15:25:43;5.38;;;1.00;;
70840;SDS011;58465;51.534;9.934;2022-07-15T15:28:27;3.25;;;1.30;;
70840;SDS011;58465;51.534;9.934;2022-07-15T15:30:53;6.07;;;1.02;;